createdAt,value
2019-01-13T00:02:21.503Z,85.77
2019-01-13T00:04:45.880Z,85.88
2019-01-13T00:07:10.289Z,85.90
2019-01-13T00:09:34.689Z,85.88
2019-01-13T00:11:59.072Z,85.52
2019-01-13T00:14:23.498Z,85.52
2019-01-13T00:16:47.957Z,85.98
2019-01-13T00:19:12.526Z,86.10
2019-01-13T00:21:37.005Z,85.93
2019-01-13T00:24:01.400Z,85.84
2019-01-13T00:26:25.800Z,86.17
2019-01-13T00:28:50.191Z,86.39
2019-01-13T00:31:14.623Z,86.46
2019-01-13T00:33:39.019Z,86.50
2019-01-13T00:36:03.413Z,86.26
2019-01-13T00:38:27.837Z,86.14
2019-01-13T00:40:52.260Z,86.29
2019-01-13T00:43:16.661Z,86.41
2019-01-13T00:45:41.049Z,86.45
2019-01-13T00:48:05.435Z,86.19
2019-01-13T00:50:29.869Z,86.11
2019-01-13T00:52:54.255Z,85.94
2019-01-13T00:55:18.684Z,85.71
2019-01-13T00:57:43.149Z,85.50
2019-01-13T01:00:10.574Z,86.35
2019-01-13T01:02:35.064Z,86.23
2019-01-13T01:04:59.465Z,85.85
2019-01-13T01:07:23.991Z,85.59
2019-01-13T01:09:48.409Z,85.83
2019-01-13T01:12:12.788Z,85.82
2019-01-13T01:14:37.228Z,85.91
2019-01-13T01:17:01.618Z,85.39
2019-01-13T01:19:26.018Z,85.21
2019-01-13T01:21:51.325Z,85.49
2019-01-13T01:24:15.783Z,85.56
2019-01-13T01:26:40.224Z,85.65
2019-01-13T01:29:04.696Z,85.57
2019-01-13T01:31:29.104Z,85.65
2019-01-13T01:33:53.886Z,85.64
2019-01-13T01:36:18.301Z,85.51
2019-01-13T01:38:42.712Z,85.58
2019-01-13T01:41:07.103Z,85.33
2019-01-13T01:43:31.502Z,85.15
2019-01-13T01:45:55.913Z,84.96
2019-01-13T01:48:23.272Z,84.62
2019-01-13T01:50:47.692Z,84.17
2019-01-13T01:53:12.087Z,83.66
2019-01-13T01:55:36.471Z,83.29
2019-01-13T01:58:00.873Z,83.64
2019-01-13T02:00:25.598Z,83.61
2019-01-13T02:02:50.187Z,83.48
2019-01-13T02:05:14.698Z,84.06
2019-01-13T02:07:39.038Z,83.90
2019-01-13T02:10:05.021Z,83.62
2019-01-13T02:12:29.439Z,83.56
2019-01-13T02:14:53.842Z,83.53
2019-01-13T02:17:18.242Z,83.83
2019-01-13T02:19:42.644Z,83.68
2019-01-13T02:22:07.040Z,83.49
2019-01-13T02:24:31.419Z,82.64
2019-01-13T02:26:55.843Z,82.34
2019-01-13T02:29:20.242Z,82.31
2019-01-13T02:31:44.643Z,82.09
2019-01-13T02:34:09.056Z,81.56
2019-01-13T02:36:33.438Z,81.76
2019-01-13T02:38:57.879Z,82.02
2019-01-13T02:41:22.341Z,81.93
2019-01-13T02:43:46.748Z,82.92
2019-01-13T02:46:11.146Z,83.77
2019-01-13T02:48:35.542Z,84.19
2019-01-13T02:50:59.976Z,83.78
2019-01-13T02:53:24.364Z,83.61
2019-01-13T02:55:48.748Z,84.01
2019-01-13T02:58:13.151Z,84.08
2019-01-13T03:00:37.556Z,84.21
2019-01-13T03:03:01.964Z,84.14
2019-01-13T03:05:26.419Z,83.85
2019-01-13T03:07:50.823Z,83.45
2019-01-13T03:10:17.819Z,83.35
2019-01-13T03:12:42.279Z,83.24
2019-01-13T03:15:08.831Z,83.05
2019-01-13T03:17:33.212Z,83.25
2019-01-13T03:19:57.612Z,83.04
2019-01-13T03:22:22.044Z,83.16
2019-01-13T03:24:46.442Z,82.54
2019-01-13T03:27:10.836Z,82.88
2019-01-13T03:29:35.345Z,82.70
2019-01-13T03:31:59.748Z,82.61
2019-01-13T03:34:24.115Z,82.46
2019-01-13T03:36:48.533Z,82.56
2019-01-13T03:39:12.921Z,82.68
2019-01-13T03:41:37.513Z,82.76
2019-01-13T03:44:01.897Z,83.44
2019-01-13T03:46:26.281Z,84.07
2019-01-13T03:48:54.317Z,84.38
2019-01-13T03:51:18.708Z,84.86
2019-01-13T03:53:43.118Z,85.22
2019-01-13T03:56:07.508Z,85.00
2019-01-13T03:58:31.912Z,85.24
2019-01-13T04:00:56.357Z,84.90
2019-01-13T04:03:20.742Z,84.80
2019-01-13T04:05:45.149Z,84.26
2019-01-13T04:08:09.536Z,83.94
2019-01-13T04:10:33.932Z,84.22
2019-01-13T04:12:58.330Z,83.96
2019-01-13T04:15:28.417Z,83.69
2019-01-13T04:17:52.851Z,83.42
2019-01-13T04:20:17.238Z,83.44
2019-01-13T04:22:41.692Z,83.80
2019-01-13T04:25:06.347Z,83.79
2019-01-13T04:27:30.742Z,83.74
2019-01-13T04:29:55.167Z,83.64
2019-01-13T04:32:19.554Z,83.48
2019-01-13T04:34:43.939Z,83.72
2019-01-13T04:37:08.360Z,83.44
2019-01-13T04:39:32.756Z,83.65
2019-01-13T04:41:57.188Z,83.45
2019-01-13T04:44:21.576Z,84.20
2019-01-13T04:46:45.968Z,84.75
2019-01-13T04:49:10.359Z,85.21
2019-01-13T04:51:34.745Z,85.43
2019-01-13T04:53:59.161Z,85.76
2019-01-13T04:56:23.557Z,85.71
2019-01-13T04:58:47.936Z,85.72
2019-01-13T05:01:12.330Z,85.71
2019-01-13T05:03:36.704Z,85.59
2019-01-13T05:06:01.120Z,85.31
2019-01-13T05:08:25.507Z,85.03
2019-01-13T05:10:49.880Z,85.25
2019-01-13T05:13:14.289Z,85.49
2019-01-13T05:15:38.677Z,85.28
2019-01-13T05:18:03.260Z,84.86
2019-01-13T05:20:27.654Z,84.69
2019-01-13T05:22:52.113Z,85.02
2019-01-13T05:25:16.601Z,84.99
2019-01-13T05:27:41.011Z,85.10
2019-01-13T05:30:19.069Z,85.26
2019-01-13T05:32:43.542Z,85.46
2019-01-13T05:35:08.266Z,85.24
2019-01-13T05:37:32.668Z,85.40
2019-01-13T05:39:57.046Z,85.43
2019-01-13T05:42:21.465Z,85.24
2019-01-13T05:44:45.870Z,85.22
2019-01-13T05:47:10.276Z,84.94
2019-01-13T05:49:34.741Z,84.62
2019-01-13T05:51:59.129Z,84.85
2019-01-13T05:54:23.643Z,85.28
2019-01-13T05:56:48.043Z,85.71
2019-01-13T05:59:12.443Z,85.90
2019-01-13T06:01:36.849Z,86.09
2019-01-13T06:04:01.294Z,86.04
2019-01-13T06:06:25.730Z,85.70
2019-01-13T06:08:50.152Z,85.73
2019-01-13T06:11:14.548Z,85.82
2019-01-13T06:13:38.930Z,85.73
2019-01-13T06:16:03.341Z,85.52
2019-01-13T06:18:27.728Z,85.32
2019-01-13T06:20:52.134Z,85.26
2019-01-13T06:23:16.626Z,84.89
2019-01-13T06:25:41.017Z,85.28
2019-01-13T06:28:05.406Z,85.33
2019-01-13T06:30:29.818Z,85.54
2019-01-13T06:32:54.205Z,85.38
2019-01-13T06:35:18.796Z,86.01
2019-01-13T06:37:43.268Z,86.25
2019-01-13T06:40:10.676Z,85.77
2019-01-13T06:42:35.081Z,85.43
2019-01-13T06:44:59.460Z,85.33
2019-01-13T06:47:23.893Z,85.98
2019-01-13T06:49:48.279Z,86.07
2019-01-13T06:52:12.665Z,86.22
2019-01-13T06:54:37.142Z,86.46
2019-01-13T06:57:01.530Z,86.08
2019-01-13T06:59:25.943Z,85.85
2019-01-13T07:01:50.335Z,85.92
2019-01-13T07:04:14.715Z,85.44
2019-01-13T07:06:39.107Z,85.24
2019-01-13T07:09:05.256Z,84.99
2019-01-13T07:11:29.701Z,85.96
2019-01-13T07:13:54.076Z,86.00
2019-01-13T07:16:18.465Z,86.16
2019-01-13T07:18:42.886Z,86.17
2019-01-13T07:21:07.267Z,85.80
2019-01-13T07:23:31.722Z,85.80
2019-01-13T07:25:56.113Z,85.39
2019-01-13T07:28:20.530Z,85.31
2019-01-13T07:30:44.957Z,85.31
2019-01-13T07:33:09.365Z,85.15
2019-01-13T07:35:33.772Z,84.93
2019-01-13T07:37:58.166Z,84.03
2019-01-13T07:40:22.785Z,84.31
2019-01-13T07:42:47.344Z,84.25
2019-01-13T07:45:14.171Z,83.60
2019-01-13T07:47:38.579Z,83.68
2019-01-13T07:50:03.129Z,84.20
2019-01-13T07:52:27.486Z,84.81
2019-01-13T07:54:51.906Z,84.91
2019-01-13T07:57:21.429Z,84.65
2019-01-13T07:59:45.864Z,84.60
2019-01-13T08:02:10.389Z,84.37
2019-01-13T08:04:34.779Z,84.43
2019-01-13T08:06:59.198Z,84.63
2019-01-13T08:09:23.594Z,84.53
2019-01-13T08:11:48.026Z,84.69
2019-01-13T08:14:12.402Z,84.61
2019-01-13T08:16:36.787Z,84.36
2019-01-13T08:19:01.201Z,84.57
2019-01-13T08:21:25.657Z,84.13
2019-01-13T08:23:50.085Z,83.98
2019-01-13T08:26:14.490Z,84.53
2019-01-13T08:28:38.878Z,84.56
2019-01-13T08:31:03.281Z,84.41
2019-01-13T08:33:27.681Z,84.34
2019-01-13T08:35:52.125Z,84.37
2019-01-13T08:38:16.531Z,84.10
2019-01-13T08:40:40.905Z,84.11
2019-01-13T08:43:05.312Z,84.00
2019-01-13T08:45:29.713Z,84.18
2019-01-13T08:47:54.124Z,84.14
2019-01-13T08:50:20.075Z,84.01
2019-01-13T08:52:44.460Z,83.67
2019-01-13T08:55:09.502Z,84.25
2019-01-13T08:57:33.936Z,84.70
2019-01-13T08:59:58.335Z,85.14
2019-01-13T09:02:23.228Z,85.14
2019-01-13T09:04:47.642Z,84.94
2019-01-13T09:07:12.035Z,85.07
2019-01-13T09:09:36.451Z,85.15
2019-01-13T09:12:00.843Z,85.15
2019-01-13T09:14:25.232Z,85.51
2019-01-13T09:16:49.651Z,85.52
2019-01-13T09:19:14.058Z,85.61
2019-01-13T09:21:38.459Z,85.58
2019-01-13T09:24:02.850Z,85.82
2019-01-13T09:26:27.221Z,85.86
2019-01-13T09:28:51.615Z,85.80
2019-01-13T09:31:15.998Z,86.28
2019-01-13T09:33:40.431Z,85.74
2019-01-13T09:36:05.060Z,85.98
2019-01-13T09:38:29.595Z,85.64
2019-01-13T09:40:53.958Z,85.56
2019-01-13T09:43:18.350Z,85.98
2019-01-13T09:45:42.855Z,85.87
2019-01-13T09:48:07.248Z,85.93
2019-01-13T09:50:31.634Z,86.20
2019-01-13T09:52:56.137Z,85.41
2019-01-13T09:55:22.680Z,85.58
2019-01-13T09:57:47.263Z,85.79
2019-01-13T10:00:23.460Z,86.30
2019-01-13T10:02:47.959Z,86.56
2019-01-13T10:05:12.476Z,86.33
2019-01-13T10:07:36.887Z,85.92
2019-01-13T10:10:01.305Z,86.26
2019-01-13T10:12:25.713Z,86.13
2019-01-13T10:14:50.216Z,86.66
2019-01-13T10:17:14.608Z,86.38
2019-01-13T10:19:39.023Z,86.22
2019-01-13T10:22:03.487Z,85.88
2019-01-13T10:24:27.906Z,86.43
2019-01-13T10:26:52.475Z,86.51
2019-01-13T10:29:16.870Z,86.57
2019-01-13T10:31:41.269Z,87.01
2019-01-13T10:34:05.697Z,87.27
2019-01-13T10:36:30.098Z,87.09
2019-01-13T10:38:54.537Z,87.34
2019-01-13T10:41:18.926Z,87.12
2019-01-13T10:43:43.338Z,87.13
2019-01-13T10:46:07.773Z,87.48
2019-01-13T10:48:32.238Z,87.67
2019-01-13T10:50:56.683Z,87.83
2019-01-13T10:53:21.095Z,87.67
2019-01-13T10:55:45.491Z,87.48
2019-01-13T10:58:09.927Z,87.68
2019-01-13T11:00:35.182Z,87.42
2019-01-13T11:03:02.465Z,87.29
2019-01-13T11:05:25.768Z,87.34
2019-01-13T11:07:51.752Z,87.10
2019-01-13T11:10:17.425Z,87.25
2019-01-13T11:12:41.904Z,87.34
2019-01-13T11:15:08.959Z,87.75
2019-01-13T11:17:33.395Z,87.41
2019-01-13T11:19:57.780Z,87.53
2019-01-13T11:22:22.188Z,87.31
2019-01-13T11:24:46.633Z,87.32
2019-01-13T11:27:11.010Z,87.07
2019-01-13T11:29:35.441Z,87.36
2019-01-13T11:31:59.849Z,87.24
2019-01-13T11:34:24.248Z,87.26
2019-01-13T11:36:48.642Z,87.76
2019-01-13T11:39:13.052Z,87.53
2019-01-13T11:41:37.487Z,88.04
2019-01-13T11:44:01.904Z,87.98
2019-01-13T11:46:26.319Z,88.53
2019-01-13T11:48:50.858Z,88.26
2019-01-13T11:51:15.272Z,88.07
2019-01-13T11:53:39.693Z,87.95
2019-01-13T11:56:04.919Z,87.71
2019-01-13T11:58:29.310Z,87.58
2019-01-13T12:00:53.722Z,87.42
2019-01-13T12:03:18.112Z,87.46
2019-01-13T12:05:42.605Z,87.77
2019-01-13T12:08:07.440Z,88.00
2019-01-13T12:10:31.968Z,88.03
2019-01-13T12:12:56.449Z,88.30
2019-01-13T12:15:22.077Z,88.26
2019-01-13T12:17:46.597Z,87.84
2019-01-13T12:20:14.226Z,87.87
2019-01-13T12:22:38.626Z,87.69
2019-01-13T12:25:03.110Z,87.77
2019-01-13T12:27:28.662Z,87.89
2019-01-13T12:29:53.130Z,88.03
2019-01-13T12:32:17.536Z,88.08
2019-01-13T12:34:41.917Z,88.08
2019-01-13T12:37:06.519Z,88.21
2019-01-13T12:39:30.926Z,88.57
2019-01-13T12:41:55.362Z,88.64
2019-01-13T12:44:19.739Z,88.73
2019-01-13T12:46:44.117Z,88.86
2019-01-13T12:49:08.553Z,88.79
2019-01-13T12:51:32.941Z,88.89
2019-01-13T12:53:57.457Z,88.89
2019-01-13T12:56:21.894Z,88.73
2019-01-13T12:58:46.298Z,88.80
2019-01-13T13:01:10.716Z,89.01
2019-01-13T13:03:35.136Z,89.16
2019-01-13T13:05:59.576Z,89.04
2019-01-13T13:08:23.986Z,88.99
2019-01-13T13:10:48.451Z,88.72
2019-01-13T13:13:12.870Z,88.74
2019-01-13T13:15:37.328Z,88.51
2019-01-13T13:18:01.757Z,88.43
2019-01-13T13:20:26.176Z,88.51
2019-01-13T13:22:50.634Z,88.43
2019-01-13T13:25:15.498Z,88.12
2019-01-13T13:27:39.905Z,87.97
2019-01-13T13:30:07.393Z,88.34
2019-01-13T13:32:31.963Z,88.05
2019-01-13T13:34:56.362Z,87.98
2019-01-13T13:37:20.758Z,87.96
2019-01-13T13:39:45.208Z,88.10
2019-01-13T13:42:09.673Z,88.26
2019-01-13T13:44:34.072Z,88.46
2019-01-13T13:47:00.832Z,88.48
2019-01-13T13:49:25.216Z,88.38
2019-01-13T13:51:49.639Z,88.63
2019-01-13T13:54:14.033Z,88.50
2019-01-13T13:56:38.430Z,88.49
2019-01-13T13:59:02.858Z,88.62
2019-01-13T14:01:27.338Z,88.88
2019-01-13T14:03:51.769Z,88.53
2019-01-13T14:06:16.168Z,88.25
2019-01-13T14:08:40.553Z,88.09
2019-01-13T14:11:05.358Z,88.09
2019-01-13T14:13:30.593Z,87.94
2019-01-13T14:15:55.012Z,87.99
2019-01-13T14:18:19.414Z,88.12
2019-01-13T14:20:43.790Z,88.15
2019-01-13T14:23:08.285Z,88.37
2019-01-13T14:25:32.741Z,88.08
2019-01-13T14:27:57.157Z,88.53
2019-01-13T14:30:26.674Z,88.59
2019-01-13T14:32:51.071Z,88.67
2019-01-13T14:35:15.576Z,88.62
2019-01-13T14:37:39.974Z,88.26
2019-01-13T14:40:15.990Z,88.45
2019-01-13T14:42:40.388Z,88.43
2019-01-13T14:45:08.153Z,88.06
2019-01-13T14:47:32.672Z,88.11
2019-01-13T14:49:57.090Z,88.37
2019-01-13T14:52:21.499Z,88.06
2019-01-13T14:54:46.933Z,87.83
2019-01-13T14:57:11.475Z,87.37
2019-01-13T14:59:35.907Z,87.02
2019-01-13T15:02:00.287Z,86.59
2019-01-13T15:04:24.754Z,86.67
2019-01-13T15:06:49.223Z,86.84
2019-01-13T15:09:13.617Z,86.71
2019-01-13T15:11:38.105Z,86.41
2019-01-13T15:14:02.574Z,86.01
2019-01-13T15:16:27.010Z,85.83
2019-01-13T15:18:51.409Z,85.92
2019-01-13T15:21:15.804Z,86.33
2019-01-13T15:23:40.221Z,86.31
2019-01-13T15:26:04.704Z,86.12
2019-01-13T15:28:29.130Z,86.17
2019-01-13T15:30:53.531Z,86.17
2019-01-13T15:33:17.926Z,86.44
2019-01-13T15:35:42.360Z,86.58
2019-01-13T15:38:06.917Z,86.79
2019-01-13T15:40:31.429Z,86.83
2019-01-13T15:42:55.899Z,87.00
2019-01-13T15:45:20.356Z,86.93
2019-01-13T15:47:44.848Z,86.67
2019-01-13T15:50:14.841Z,86.98
2019-01-13T15:52:39.271Z,87.51
2019-01-13T15:55:04.645Z,87.79
2019-01-13T15:57:29.057Z,87.71
2019-01-13T15:59:53.472Z,87.68
2019-01-13T16:02:26.887Z,87.55
2019-01-13T16:04:51.299Z,87.55
2019-01-13T16:07:15.691Z,87.66
2019-01-13T16:09:40.107Z,87.47
2019-01-13T16:12:04.575Z,87.29
2019-01-13T16:14:28.969Z,87.56
2019-01-13T16:16:53.401Z,87.32
2019-01-13T16:19:17.805Z,87.11
2019-01-13T16:21:42.210Z,87.27
2019-01-13T16:24:06.627Z,87.15
2019-01-13T16:26:31.089Z,86.99
2019-01-13T16:28:55.485Z,86.63
2019-01-13T16:31:19.878Z,85.91
2019-01-13T16:33:44.282Z,85.74
2019-01-13T16:36:08.714Z,84.47
2019-01-13T16:38:33.165Z,84.27
2019-01-13T16:40:57.561Z,83.97
2019-01-13T16:43:21.951Z,84.91
2019-01-13T16:45:46.390Z,85.27
2019-01-13T16:48:10.797Z,85.85
2019-01-13T16:50:35.254Z,86.41
2019-01-13T16:52:59.700Z,86.09
2019-01-13T16:55:24.942Z,83.66
2019-01-13T16:57:49.371Z,82.21
2019-01-13T17:00:16.673Z,81.41
2019-01-13T17:02:41.109Z,80.89
2019-01-13T17:05:06.883Z,81.50
2019-01-13T17:07:31.257Z,81.10
2019-01-13T17:09:55.673Z,80.80
2019-01-13T17:12:20.071Z,79.84
2019-01-13T17:14:44.458Z,79.81
2019-01-13T17:17:08.890Z,78.52
2019-01-13T17:19:33.297Z,78.68
2019-01-13T17:21:57.728Z,79.09
2019-01-13T17:24:22.126Z,78.83
2019-01-13T17:26:46.554Z,78.45
2019-01-13T17:29:13.718Z,78.89
2019-01-13T17:31:38.126Z,78.78
2019-01-13T17:34:02.566Z,79.22
2019-01-13T17:36:27.007Z,78.63
2019-01-13T17:38:51.434Z,79.65
2019-01-13T17:41:15.816Z,80.30
2019-01-13T17:43:40.231Z,80.35
2019-01-13T17:46:04.803Z,79.97
2019-01-13T17:48:29.191Z,80.45
2019-01-13T17:50:53.623Z,79.90
2019-01-13T17:53:18.021Z,80.71
2019-01-13T17:55:42.427Z,80.51
2019-01-13T17:58:06.909Z,80.81
2019-01-13T18:00:34.385Z,79.91
2019-01-13T18:03:01.831Z,79.43
2019-01-13T18:05:26.224Z,80.09
2019-01-13T18:07:50.627Z,80.52
2019-01-13T18:10:15.132Z,80.70
2019-01-13T18:12:39.504Z,80.70
2019-01-13T18:15:05.412Z,80.28
2019-01-13T18:17:31.335Z,80.57
2019-01-13T18:19:55.774Z,80.55
2019-01-13T18:22:20.188Z,80.79
2019-01-13T18:24:44.597Z,80.45
2019-01-13T18:27:09.028Z,81.13
2019-01-13T18:29:33.439Z,81.96
2019-01-13T18:31:57.835Z,82.12
2019-01-13T18:34:22.271Z,82.23
2019-01-13T18:36:46.675Z,81.92
2019-01-13T18:39:11.093Z,81.88
2019-01-13T18:41:35.499Z,81.12
2019-01-13T18:43:59.915Z,81.09
2019-01-13T18:46:24.430Z,80.69
2019-01-13T18:48:48.830Z,80.88
2019-01-13T18:51:13.339Z,81.07
2019-01-13T18:53:37.758Z,80.85
2019-01-13T18:56:02.168Z,80.52
2019-01-13T18:58:26.689Z,80.43
2019-01-13T19:00:51.077Z,80.23
2019-01-13T19:03:15.512Z,79.87
2019-01-13T19:05:39.921Z,79.55
2019-01-13T19:08:04.446Z,79.55
2019-01-13T19:10:43.610Z,79.25
2019-01-13T19:13:19.989Z,79.16
2019-01-13T19:15:46.583Z,79.81
2019-01-13T19:18:11.086Z,79.92
2019-01-13T19:20:35.660Z,80.05
2019-01-13T19:23:00.425Z,80.06
2019-01-13T19:25:25.015Z,80.29
2019-01-13T19:27:49.431Z,80.10
2019-01-13T19:30:15.884Z,80.07
2019-01-13T19:32:40.310Z,79.81
2019-01-13T19:35:07.273Z,79.48
2019-01-13T19:37:31.709Z,79.76
2019-01-13T19:39:56.114Z,79.68
2019-01-13T19:42:20.534Z,80.41
2019-01-13T19:44:44.960Z,80.18
2019-01-13T19:47:09.375Z,80.06
2019-01-13T19:49:36.133Z,80.76
2019-01-13T19:52:00.563Z,80.65
2019-01-13T19:54:24.970Z,79.24
2019-01-13T19:56:49.401Z,80.08
2019-01-13T19:59:13.824Z,79.20
2019-01-13T20:01:38.260Z,79.61
2019-01-13T20:04:02.651Z,79.63
2019-01-13T20:06:27.110Z,80.53
2019-01-13T20:08:51.535Z,80.42
2019-01-13T20:11:15.942Z,79.27
2019-01-13T20:13:40.407Z,78.58
2019-01-13T20:16:04.841Z,77.44
2019-01-13T20:18:29.256Z,76.55
2019-01-13T20:20:53.663Z,76.49
2019-01-13T20:23:18.066Z,77.46
2019-01-13T20:25:42.516Z,77.77
2019-01-13T20:28:06.917Z,78.09
2019-01-13T20:30:33.256Z,76.41
2019-01-13T20:32:57.877Z,78.41
2019-01-13T20:35:22.353Z,79.09
2019-01-13T20:37:46.776Z,78.95
2019-01-13T20:40:15.907Z,79.53
2019-01-13T20:42:40.333Z,77.70
2019-01-13T20:45:08.150Z,78.78
2019-01-13T20:47:32.585Z,79.15
2019-01-13T20:49:57.014Z,79.77
2019-01-13T20:52:21.413Z,79.58
2019-01-13T20:54:45.810Z,79.50
2019-01-13T20:57:10.235Z,79.10
2019-01-13T20:59:36.181Z,79.30
2019-01-13T21:02:00.603Z,79.16
2019-01-13T21:04:25.007Z,78.97
2019-01-13T21:06:49.407Z,79.08
2019-01-13T21:09:13.836Z,78.69
2019-01-13T21:11:38.307Z,79.11
2019-01-13T21:14:02.772Z,78.27
2019-01-13T21:16:27.237Z,79.50
2019-01-13T21:18:51.641Z,79.89
2019-01-13T21:21:16.129Z,80.64
2019-01-13T21:23:40.530Z,80.16
2019-01-13T21:26:05.228Z,81.36
2019-01-13T21:28:29.623Z,81.44
2019-01-13T21:30:54.011Z,82.03
2019-01-13T21:33:18.469Z,81.34
2019-01-13T21:35:42.874Z,82.01
2019-01-13T21:38:07.365Z,81.49
2019-01-13T21:40:31.763Z,80.40
2019-01-13T21:42:56.157Z,80.48
2019-01-13T21:45:24.438Z,81.42
2019-01-13T21:47:48.844Z,81.33
2019-01-13T21:50:18.399Z,81.01
2019-01-13T21:52:42.823Z,80.29
2019-01-13T21:55:10.061Z,79.46
2019-01-13T21:57:34.479Z,79.99
2019-01-13T21:59:58.894Z,79.01
2019-01-13T22:02:32.968Z,78.82
2019-01-13T22:04:57.348Z,79.21
2019-01-13T22:07:21.744Z,79.18
2019-01-13T22:09:46.531Z,78.28
2019-01-13T22:12:10.914Z,78.33
2019-01-13T22:14:35.362Z,78.42
2019-01-13T22:16:59.755Z,78.86
2019-01-13T22:19:24.410Z,78.34
2019-01-13T22:21:48.829Z,76.48
2019-01-13T22:24:13.221Z,76.56
2019-01-13T22:26:37.620Z,76.41
2019-01-13T22:29:02.043Z,75.09
2019-01-13T22:31:26.443Z,74.21
2019-01-13T22:33:51.321Z,73.92
2019-01-13T22:36:15.728Z,74.11
2019-01-13T22:38:40.133Z,74.00
2019-01-13T22:41:04.531Z,74.05
2019-01-13T22:43:28.927Z,73.71
2019-01-13T22:45:53.363Z,72.57
2019-01-13T22:48:17.746Z,72.37
2019-01-13T22:50:44.473Z,72.01
2019-01-13T22:53:08.898Z,72.21
2019-01-13T22:55:33.307Z,71.72
2019-01-13T22:57:57.736Z,72.40
2019-01-13T23:00:38.485Z,71.82
2019-01-13T23:03:02.989Z,68.82
2019-01-13T23:05:27.376Z,67.17
2019-01-13T23:07:51.756Z,67.36
2019-01-13T23:10:16.162Z,66.77
2019-01-13T23:12:40.543Z,66.67
2019-01-13T23:15:06.220Z,67.84
2019-01-13T23:17:30.639Z,67.74
2019-01-13T23:19:55.046Z,69.92
2019-01-13T23:22:19.471Z,70.84
2019-01-13T23:24:43.860Z,71.54
2019-01-13T23:27:08.286Z,69.91
2019-01-13T23:29:32.671Z,69.08
2019-01-13T23:31:57.151Z,69.39
2019-01-13T23:34:21.531Z,68.46
2019-01-13T23:36:45.990Z,67.25
2019-01-13T23:39:10.400Z,65.32
2019-01-13T23:41:34.818Z,64.92
2019-01-13T23:43:59.250Z,64.57
2019-01-13T23:46:23.655Z,64.80
2019-01-13T23:48:48.075Z,65.12
2019-01-13T23:51:12.474Z,66.68
2019-01-13T23:53:36.877Z,66.42
2019-01-13T23:56:01.303Z,65.82
2019-01-13T23:58:25.704Z,65.57
